sensor_id;sensor_type;location;lat;lon;timestamp;P1;durP1;ratioP1;P2;durP2;ratioP2
46318;SDS011;32042;50.916;2.926;2023-12-28T00:00:39;4.23;;;1.70;;
46318;SDS011;32042;50.916;2.926;2023-12-28T00:03:05;2.33;;;2.03;;
46318;SDS011;32042;50.916;2.926;2023-12-28T00:05:31;4.27;;;1.90;;
46318;SDS011;32042;50.916;2.926;2023-12-28T00:07:58;3.87;;;1.80;;
46318;SDS011;32042;50.916;2.926;2023-12-28T00:10:25;2.60;;;1.60;;
46318;SDS011;32042;50.916;2.926;2023-12-28T00:12:51;7.83;;;1.90;;
46318;SDS011;32042;50.916;2.926;2023-12-28T00:15:17;2.30;;;1.43;;
46318;SDS011;32042;50.916;2.926;2023-12-28T00:17:43;4.07;;;2.00;;
46318;SDS011;32042;50.916;2.926;2023-12-28T00:20:09;3.80;;;1.73;;
46318;SDS011;32042;50.916;2.926;2023-12-28T00:22:35;2.73;;;1.67;;
46318;SDS011;32042;50.916;2.926;2023-12-28T00:25:05;1.80;;;1.40;;
46318;SDS011;32042;50.916;2.926;2023-12-28T00:27:31;2.23;;;1.57;;
46318;SDS011;32042;50.916;2.926;2023-12-28T00:29:59;4.83;;;1.43;;
46318;SDS011;32042;50.916;2.926;2023-12-28T00:32:25;3.33;;;1.47;;
46318;SDS011;32042;50.916;2.926;2023-12-28T00:34:51;2.67;;;1.20;;
46318;SDS011;32042;50.916;2.926;2023-12-28T00:37:17;2.70;;;1.40;;
46318;SDS011;32042;50.916;2.926;2023-12-28T00:39:43;4.70;;;1.40;;
46318;SDS011;32042;50.916;2.926;2023-12-28T00:42:12;5.77;;;1.60;;
46318;SDS011;32042;50.916;2.926;2023-12-28T00:44:38;4.07;;;1.70;;
46318;SDS011;32042;50.916;2.926;2023-12-28T00:47:04;3.37;;;1.70;;
46318;SDS011;32042;50.916;2.926;2023-12-28T00:49:31;2.90;;;1.57;;
46318;SDS011;32042;50.916;2.926;2023-12-28T00:51:57;2.47;;;1.40;;
46318;SDS011;32042;50.916;2.926;2023-12-28T00:54:23;4.60;;;1.63;;
46318;SDS011;32042;50.916;2.926;2023-12-28T00:56:49;2.00;;;1.13;;
46318;SDS011;32042;50.916;2.926;2023-12-28T00:59:15;2.43;;;1.23;;
46318;SDS011;32042;50.916;2.926;2023-12-28T01:01:41;6.03;;;2.07;;
46318;SDS011;32042;50.916;2.926;2023-12-28T01:04:08;2.67;;;1.27;;
46318;SDS011;32042;50.916;2.926;2023-12-28T01:06:35;4.70;;;1.60;;
46318;SDS011;32042;50.916;2.926;2023-12-28T01:09:01;4.77;;;1.70;;
46318;SDS011;32042;50.916;2.926;2023-12-28T01:11:27;4.00;;;1.40;;
46318;SDS011;32042;50.916;2.926;2023-12-28T01:13:53;2.87;;;1.13;;
46318;SDS011;32042;50.916;2.926;2023-12-28T01:16:19;3.87;;;1.40;;
46318;SDS011;32042;50.916;2.926;2023-12-28T01:18:46;3.90;;;1.30;;
46318;SDS011;32042;50.916;2.926;2023-12-28T01:21:12;3.40;;;1.23;;
46318;SDS011;32042;50.916;2.926;2023-12-28T01:23:38;3.00;;;1.37;;
46318;SDS011;32042;50.916;2.926;2023-12-28T01:26:04;5.00;;;1.30;;
46318;SDS011;32042;50.916;2.926;2023-12-28T01:28:30;3.70;;;1.50;;
46318;SDS011;32042;50.916;2.926;2023-12-28T01:30:56;7.00;;;1.40;;
46318;SDS011;32042;50.916;2.926;2023-12-28T01:33:22;2.57;;;1.20;;
46318;SDS011;32042;50.916;2.926;2023-12-28T01:35:48;5.77;;;1.40;;
46318;SDS011;32042;50.916;2.926;2023-12-28T01:38:14;7.10;;;1.27;;
46318;SDS011;32042;50.916;2.926;2023-12-28T01:40:44;5.27;;;1.53;;
46318;SDS011;32042;50.916;2.926;2023-12-28T01:43:10;4.60;;;1.50;;
46318;SDS011;32042;50.916;2.926;2023-12-28T01:45:36;2.60;;;1.00;;
46318;SDS011;32042;50.916;2.926;2023-12-28T01:48:02;6.67;;;1.60;;
46318;SDS011;32042;50.916;2.926;2023-12-28T01:50:28;6.97;;;1.30;;
46318;SDS011;32042;50.916;2.926;2023-12-28T01:52:56;7.03;;;2.13;;
46318;SDS011;32042;50.916;2.926;2023-12-28T01:55:24;4.53;;;1.10;;
46318;SDS011;32042;50.916;2.926;2023-12-28T01:57:51;4.23;;;1.60;;
46318;SDS011;32042;50.916;2.926;2023-12-28T02:00:18;4.60;;;1.40;;
46318;SDS011;32042;50.916;2.926;2023-12-28T02:02:44;2.30;;;0.97;;
46318;SDS011;32042;50.916;2.926;2023-12-28T02:05:11;6.73;;;1.30;;
46318;SDS011;32042;50.916;2.926;2023-12-28T02:07:37;6.90;;;1.07;;
46318;SDS011;32042;50.916;2.926;2023-12-28T02:10:04;7.43;;;1.53;;
46318;SDS011;32042;50.916;2.926;2023-12-28T02:12:30;3.97;;;1.80;;
46318;SDS011;32042;50.916;2.926;2023-12-28T02:14:56;4.37;;;1.07;;
46318;SDS011;32042;50.916;2.926;2023-12-28T02:17:28;4.27;;;1.30;;
46318;SDS011;32042;50.916;2.926;2023-12-28T02:19:56;10.03;;;1.50;;
46318;SDS011;32042;50.916;2.926;2023-12-28T02:22:26;5.47;;;1.30;;
46318;SDS011;32042;50.916;2.926;2023-12-28T02:25:06;5.53;;;1.30;;
46318;SDS011;32042;50.916;2.926;2023-12-28T02:27:33;4.93;;;1.33;;
46318;SDS011;32042;50.916;2.926;2023-12-28T02:29:59;6.27;;;1.30;;
46318;SDS011;32042;50.916;2.926;2023-12-28T02:32:50;7.97;;;1.77;;
46318;SDS011;32042;50.916;2.926;2023-12-28T02:35:34;9.63;;;1.40;;
46318;SDS011;32042;50.916;2.926;2023-12-28T02:38:00;4.43;;;1.30;;
46318;SDS011;32042;50.916;2.926;2023-12-28T02:40:27;4.30;;;1.30;;
46318;SDS011;32042;50.916;2.926;2023-12-28T02:42:53;8.73;;;1.50;;
46318;SDS011;32042;50.916;2.926;2023-12-28T02:45:19;5.93;;;1.70;;
46318;SDS011;32042;50.916;2.926;2023-12-28T02:47:45;8.13;;;1.30;;
46318;SDS011;32042;50.916;2.926;2023-12-28T02:50:12;9.87;;;1.83;;
46318;SDS011;32042;50.916;2.926;2023-12-28T02:52:38;7.73;;;1.40;;
46318;SDS011;32042;50.916;2.926;2023-12-28T02:55:04;9.87;;;1.60;;
46318;SDS011;32042;50.916;2.926;2023-12-28T02:57:30;7.37;;;1.40;;
46318;SDS011;32042;50.916;2.926;2023-12-28T02:59:56;8.50;;;1.40;;
46318;SDS011;32042;50.916;2.926;2023-12-28T03:02:26;9.23;;;1.53;;
46318;SDS011;32042;50.916;2.926;2023-12-28T03:04:52;6.43;;;1.20;;
46318;SDS011;32042;50.916;2.926;2023-12-28T03:07:18;7.03;;;1.40;;
46318;SDS011;32042;50.916;2.926;2023-12-28T03:09:44;9.33;;;1.63;;
46318;SDS011;32042;50.916;2.926;2023-12-28T03:12:10;11.10;;;2.30;;
46318;SDS011;32042;50.916;2.926;2023-12-28T03:14:36;9.50;;;1.67;;
46318;SDS011;32042;50.916;2.926;2023-12-28T03:17:02;10.70;;;1.60;;
46318;SDS011;32042;50.916;2.926;2023-12-28T03:19:28;6.60;;;1.60;;
46318;SDS011;32042;50.916;2.926;2023-12-28T03:21:54;9.50;;;1.73;;
46318;SDS011;32042;50.916;2.926;2023-12-28T03:24:21;8.10;;;1.87;;
46318;SDS011;32042;50.916;2.926;2023-12-28T03:26:47;10.33;;;1.50;;
46318;SDS011;32042;50.916;2.926;2023-12-28T03:29:13;8.47;;;1.70;;
46318;SDS011;32042;50.916;2.926;2023-12-28T03:31:39;6.43;;;1.97;;
46318;SDS011;32042;50.916;2.926;2023-12-28T03:34:05;8.10;;;1.80;;
46318;SDS011;32042;50.916;2.926;2023-12-28T03:36:31;9.63;;;1.97;;
46318;SDS011;32042;50.916;2.926;2023-12-28T03:38:57;9.57;;;1.70;;
46318;SDS011;32042;50.916;2.926;2023-12-28T03:41:24;11.80;;;2.23;;
46318;SDS011;32042;50.916;2.926;2023-12-28T03:43:50;13.20;;;2.10;;
46318;SDS011;32042;50.916;2.926;2023-12-28T03:46:16;13.43;;;2.07;;
46318;SDS011;32042;50.916;2.926;2023-12-28T03:48:42;9.83;;;1.83;;
46318;SDS011;32042;50.916;2.926;2023-12-28T03:51:08;9.70;;;2.17;;
46318;SDS011;32042;50.916;2.926;2023-12-28T03:53:39;8.43;;;1.57;;
46318;SDS011;32042;50.916;2.926;2023-12-28T03:56:05;6.67;;;1.90;;
46318;SDS011;32042;50.916;2.926;2023-12-28T03:58:31;12.83;;;2.07;;
46318;SDS011;32042;50.916;2.926;2023-12-28T04:00:58;6.83;;;1.50;;
46318;SDS011;32042;50.916;2.926;2023-12-28T04:03:24;6.37;;;1.17;;
46318;SDS011;32042;50.916;2.926;2023-12-28T04:05:50;13.37;;;1.83;;
46318;SDS011;32042;50.916;2.926;2023-12-28T04:08:16;10.53;;;2.17;;
46318;SDS011;32042;50.916;2.926;2023-12-28T04:10:42;12.00;;;2.23;;
46318;SDS011;32042;50.916;2.926;2023-12-28T04:13:08;10.53;;;2.00;;
46318;SDS011;32042;50.916;2.926;2023-12-28T04:15:34;18.33;;;2.30;;
46318;SDS011;32042;50.916;2.926;2023-12-28T04:18:01;8.97;;;1.97;;
46318;SDS011;32042;50.916;2.926;2023-12-28T04:20:27;10.10;;;2.33;;
46318;SDS011;32042;50.916;2.926;2023-12-28T04:22:53;7.60;;;1.63;;
46318;SDS011;32042;50.916;2.926;2023-12-28T04:25:19;12.20;;;2.00;;
46318;SDS011;32042;50.916;2.926;2023-12-28T04:27:45;13.33;;;2.20;;
46318;SDS011;32042;50.916;2.926;2023-12-28T04:30:12;13.47;;;2.63;;
46318;SDS011;32042;50.916;2.926;2023-12-28T04:32:38;8.23;;;1.80;;
46318;SDS011;32042;50.916;2.926;2023-12-28T04:35:04;6.03;;;1.67;;
46318;SDS011;32042;50.916;2.926;2023-12-28T04:37:31;14.77;;;2.10;;
46318;SDS011;32042;50.916;2.926;2023-12-28T04:39:58;10.00;;;2.27;;
46318;SDS011;32042;50.916;2.926;2023-12-28T04:42:24;11.70;;;2.50;;
46318;SDS011;32042;50.916;2.926;2023-12-28T04:44:50;10.50;;;1.93;;
46318;SDS011;32042;50.916;2.926;2023-12-28T04:47:16;6.07;;;1.70;;
46318;SDS011;32042;50.916;2.926;2023-12-28T04:49:42;8.23;;;2.03;;
46318;SDS011;32042;50.916;2.926;2023-12-28T04:52:08;9.70;;;1.60;;
46318;SDS011;32042;50.916;2.926;2023-12-28T04:54:34;12.10;;;2.43;;
46318;SDS011;32042;50.916;2.926;2023-12-28T04:57:00;11.17;;;2.23;;
46318;SDS011;32042;50.916;2.926;2023-12-28T04:59:27;5.83;;;1.73;;
46318;SDS011;32042;50.916;2.926;2023-12-28T05:01:53;10.27;;;2.07;;
46318;SDS011;32042;50.916;2.926;2023-12-28T05:04:19;8.33;;;1.67;;
46318;SDS011;32042;50.916;2.926;2023-12-28T05:06:46;13.23;;;2.03;;
46318;SDS011;32042;50.916;2.926;2023-12-28T05:09:12;16.70;;;2.17;;
46318;SDS011;32042;50.916;2.926;2023-12-28T05:11:38;9.57;;;2.07;;
46318;SDS011;32042;50.916;2.926;2023-12-28T05:14:04;9.07;;;2.77;;
46318;SDS011;32042;50.916;2.926;2023-12-28T05:16:30;10.63;;;2.07;;
46318;SDS011;32042;50.916;2.926;2023-12-28T05:18:56;10.87;;;2.10;;
46318;SDS011;32042;50.916;2.926;2023-12-28T05:21:22;7.23;;;2.17;;
46318;SDS011;32042;50.916;2.926;2023-12-28T05:23:48;10.07;;;1.87;;
46318;SDS011;32042;50.916;2.926;2023-12-28T05:26:15;12.17;;;2.40;;
46318;SDS011;32042;50.916;2.926;2023-12-28T05:28:41;16.60;;;2.47;;
46318;SDS011;32042;50.916;2.926;2023-12-28T05:31:07;9.80;;;1.80;;
46318;SDS011;32042;50.916;2.926;2023-12-28T05:33:33;18.17;;;2.57;;
46318;SDS011;32042;50.916;2.926;2023-12-28T05:35:59;13.47;;;2.40;;
46318;SDS011;32042;50.916;2.926;2023-12-28T05:38:25;8.37;;;2.10;;
46318;SDS011;32042;50.916;2.926;2023-12-28T05:40:51;13.97;;;2.93;;
46318;SDS011;32042;50.916;2.926;2023-12-28T05:43:17;12.80;;;2.20;;
46318;SDS011;32042;50.916;2.926;2023-12-28T05:45:43;17.83;;;2.30;;
46318;SDS011;32042;50.916;2.926;2023-12-28T05:48:09;14.53;;;2.20;;
46318;SDS011;32042;50.916;2.926;2023-12-28T05:50:35;12.57;;;2.17;;
46318;SDS011;32042;50.916;2.926;2023-12-28T05:53:01;12.53;;;2.13;;
46318;SDS011;32042;50.916;2.926;2023-12-28T05:55:27;12.17;;;2.40;;
46318;SDS011;32042;50.916;2.926;2023-12-28T05:57:53;10.40;;;1.83;;
46318;SDS011;32042;50.916;2.926;2023-12-28T06:00:19;15.60;;;2.40;;
46318;SDS011;32042;50.916;2.926;2023-12-28T06:02:46;10.07;;;1.83;;
46318;SDS011;32042;50.916;2.926;2023-12-28T06:05:17;15.23;;;2.53;;
46318;SDS011;32042;50.916;2.926;2023-12-28T06:07:43;13.07;;;2.40;;
46318;SDS011;32042;50.916;2.926;2023-12-28T06:10:09;13.73;;;2.20;;
46318;SDS011;32042;50.916;2.926;2023-12-28T06:12:35;10.23;;;2.50;;
46318;SDS011;32042;50.916;2.926;2023-12-28T06:15:02;13.90;;;2.30;;
46318;SDS011;32042;50.916;2.926;2023-12-28T06:17:28;10.20;;;2.10;;
46318;SDS011;32042;50.916;2.926;2023-12-28T06:19:54;12.33;;;2.37;;
46318;SDS011;32042;50.916;2.926;2023-12-28T06:22:20;14.30;;;2.67;;
46318;SDS011;32042;50.916;2.926;2023-12-28T06:24:46;9.33;;;1.90;;
46318;SDS011;32042;50.916;2.926;2023-12-28T06:27:12;12.57;;;2.30;;
46318;SDS011;32042;50.916;2.926;2023-12-28T06:29:38;13.73;;;2.10;;
46318;SDS011;32042;50.916;2.926;2023-12-28T06:32:04;13.37;;;2.10;;
46318;SDS011;32042;50.916;2.926;2023-12-28T06:34:31;14.13;;;2.53;;
46318;SDS011;32042;50.916;2.926;2023-12-28T06:36:57;11.07;;;2.27;;
46318;SDS011;32042;50.916;2.926;2023-12-28T06:39:23;14.47;;;3.10;;
46318;SDS011;32042;50.916;2.926;2023-12-28T06:41:49;10.80;;;2.33;;
46318;SDS011;32042;50.916;2.926;2023-12-28T06:44:15;13.83;;;2.00;;
46318;SDS011;32042;50.916;2.926;2023-12-28T06:46:41;15.37;;;2.23;;
46318;SDS011;32042;50.916;2.926;2023-12-28T06:49:07;9.23;;;2.47;;
46318;SDS011;32042;50.916;2.926;2023-12-28T06:51:33;15.40;;;2.27;;
46318;SDS011;32042;50.916;2.926;2023-12-28T06:53:59;14.37;;;3.27;;
46318;SDS011;32042;50.916;2.926;2023-12-28T06:56:25;12.83;;;2.20;;
46318;SDS011;32042;50.916;2.926;2023-12-28T06:58:51;11.97;;;1.83;;
46318;SDS011;32042;50.916;2.926;2023-12-28T07:01:17;10.07;;;1.83;;
46318;SDS011;32042;50.916;2.926;2023-12-28T07:03:44;13.73;;;1.77;;
46318;SDS011;32042;50.916;2.926;2023-12-28T07:06:11;9.73;;;2.17;;
46318;SDS011;32042;50.916;2.926;2023-12-28T07:08:37;11.77;;;2.53;;
46318;SDS011;32042;50.916;2.926;2023-12-28T07:11:03;11.43;;;3.13;;
46318;SDS011;32042;50.916;2.926;2023-12-28T07:13:29;12.70;;;2.43;;
46318;SDS011;32042;50.916;2.926;2023-12-28T07:15:55;15.43;;;2.20;;
46318;SDS011;32042;50.916;2.926;2023-12-28T07:18:22;14.50;;;2.50;;
46318;SDS011;32042;50.916;2.926;2023-12-28T07:20:48;15.67;;;2.23;;
46318;SDS011;32042;50.916;2.926;2023-12-28T07:23:14;13.00;;;2.50;;
46318;SDS011;32042;50.916;2.926;2023-12-28T07:25:40;12.57;;;2.63;;
46318;SDS011;32042;50.916;2.926;2023-12-28T07:28:06;13.47;;;2.83;;
46318;SDS011;32042;50.916;2.926;2023-12-28T07:30:32;14.70;;;2.67;;
46318;SDS011;32042;50.916;2.926;2023-12-28T07:32:58;10.67;;;2.53;;
46318;SDS011;32042;50.916;2.926;2023-12-28T07:35:24;13.27;;;2.83;;
46318;SDS011;32042;50.916;2.926;2023-12-28T07:37:51;12.73;;;2.07;;
46318;SDS011;32042;50.916;2.926;2023-12-28T07:40:17;12.30;;;2.87;;
46318;SDS011;32042;50.916;2.926;2023-12-28T07:42:43;13.90;;;3.10;;
46318;SDS011;32042;50.916;2.926;2023-12-28T07:45:09;14.27;;;2.33;;
46318;SDS011;32042;50.916;2.926;2023-12-28T07:47:35;13.67;;;2.23;;
46318;SDS011;32042;50.916;2.926;2023-12-28T07:50:01;15.17;;;2.30;;
46318;SDS011;32042;50.916;2.926;2023-12-28T07:52:28;15.03;;;3.73;;
46318;SDS011;32042;50.916;2.926;2023-12-28T07:54:54;15.77;;;2.17;;
46318;SDS011;32042;50.916;2.926;2023-12-28T07:57:20;11.27;;;2.73;;
46318;SDS011;32042;50.916;2.926;2023-12-28T07:59:46;25.43;;;3.50;;
46318;SDS011;32042;50.916;2.926;2023-12-28T08:02:13;20.27;;;2.73;;
46318;SDS011;32042;50.916;2.926;2023-12-28T08:04:39;13.97;;;2.40;;
46318;SDS011;32042;50.916;2.926;2023-12-28T08:07:05;19.17;;;3.10;;
46318;SDS011;32042;50.916;2.926;2023-12-28T08:09:33;12.10;;;2.40;;
46318;SDS011;32042;50.916;2.926;2023-12-28T08:12:00;13.20;;;2.43;;
46318;SDS011;32042;50.916;2.926;2023-12-28T08:14:27;13.37;;;2.10;;
46318;SDS011;32042;50.916;2.926;2023-12-28T08:16:54;11.23;;;2.40;;
46318;SDS011;32042;50.916;2.926;2023-12-28T08:19:20;12.03;;;2.37;;
46318;SDS011;32042;50.916;2.926;2023-12-28T08:21:46;8.63;;;2.43;;
46318;SDS011;32042;50.916;2.926;2023-12-28T08:24:12;13.30;;;3.13;;
46318;SDS011;32042;50.916;2.926;2023-12-28T08:26:38;12.13;;;2.50;;
46318;SDS011;32042;50.916;2.926;2023-12-28T08:29:05;9.83;;;2.77;;
46318;SDS011;32042;50.916;2.926;2023-12-28T08:31:31;12.20;;;2.37;;
46318;SDS011;32042;50.916;2.926;2023-12-28T08:33:57;10.63;;;2.00;;
46318;SDS011;32042;50.916;2.926;2023-12-28T08:36:23;16.57;;;2.80;;
46318;SDS011;32042;50.916;2.926;2023-12-28T08:38:49;8.30;;;2.40;;
46318;SDS011;32042;50.916;2.926;2023-12-28T08:41:21;13.53;;;1.97;;
46318;SDS011;32042;50.916;2.926;2023-12-28T08:43:51;13.30;;;2.00;;
46318;SDS011;32042;50.916;2.926;2023-12-28T08:46:19;10.80;;;2.60;;
46318;SDS011;32042;50.916;2.926;2023-12-28T08:48:45;14.17;;;2.20;;
46318;SDS011;32042;50.916;2.926;2023-12-28T08:51:11;12.57;;;2.93;;
46318;SDS011;32042;50.916;2.926;2023-12-28T08:53:40;17.77;;;3.20;;
46318;SDS011;32042;50.916;2.926;2023-12-28T08:56:13;18.43;;;2.53;;
46318;SDS011;32042;50.916;2.926;2023-12-28T08:58:39;11.70;;;2.30;;
46318;SDS011;32042;50.916;2.926;2023-12-28T09:01:05;17.43;;;3.50;;
46318;SDS011;32042;50.916;2.926;2023-12-28T09:03:31;12.33;;;3.17;;
46318;SDS011;32042;50.916;2.926;2023-12-28T09:05:58;15.77;;;2.43;;
46318;SDS011;32042;50.916;2.926;2023-12-28T09:08:25;10.30;;;3.17;;
46318;SDS011;32042;50.916;2.926;2023-12-28T09:10:51;17.17;;;2.40;;
46318;SDS011;32042;50.916;2.926;2023-12-28T09:13:18;10.27;;;2.27;;
46318;SDS011;32042;50.916;2.926;2023-12-28T09:15:45;14.63;;;2.73;;
46318;SDS011;32042;50.916;2.926;2023-12-28T09:18:11;12.90;;;3.30;;
46318;SDS011;32042;50.916;2.926;2023-12-28T09:20:37;14.93;;;2.43;;
46318;SDS011;32042;50.916;2.926;2023-12-28T09:23:03;15.40;;;2.73;;
46318;SDS011;32042;50.916;2.926;2023-12-28T09:25:30;14.40;;;2.87;;
46318;SDS011;32042;50.916;2.926;2023-12-28T09:27:57;16.50;;;2.97;;
46318;SDS011;32042;50.916;2.926;2023-12-28T09:30:24;19.10;;;3.10;;
46318;SDS011;32042;50.916;2.926;2023-12-28T09:32:50;12.80;;;3.13;;
46318;SDS011;32042;50.916;2.926;2023-12-28T09:35:16;10.00;;;2.07;;
46318;SDS011;32042;50.916;2.926;2023-12-28T09:37:42;13.23;;;3.07;;
46318;SDS011;32042;50.916;2.926;2023-12-28T09:40:08;15.77;;;3.20;;
46318;SDS011;32042;50.916;2.926;2023-12-28T09:43:19;18.03;;;2.90;;
46318;SDS011;32042;50.916;2.926;2023-12-28T09:45:24;11.50;;;2.37;;
46318;SDS011;32042;50.916;2.926;2023-12-28T09:47:51;11.37;;;2.77;;
46318;SDS011;32042;50.916;2.926;2023-12-28T09:50:17;15.70;;;3.17;;
46318;SDS011;32042;50.916;2.926;2023-12-28T09:52:44;10.43;;;3.03;;
46318;SDS011;32042;50.916;2.926;2023-12-28T09:55:10;16.53;;;2.90;;
46318;SDS011;32042;50.916;2.926;2023-12-28T09:57:37;20.67;;;3.00;;
46318;SDS011;32042;50.916;2.926;2023-12-28T10:00:03;13.73;;;3.00;;
46318;SDS011;32042;50.916;2.926;2023-12-28T10:02:31;15.47;;;2.40;;
46318;SDS011;32042;50.916;2.926;2023-12-28T10:04:58;22.20;;;3.53;;
46318;SDS011;32042;50.916;2.926;2023-12-28T10:07:24;22.33;;;2.73;;
46318;SDS011;32042;50.916;2.926;2023-12-28T10:09:52;19.13;;;2.83;;
46318;SDS011;32042;50.916;2.926;2023-12-28T10:12:18;15.67;;;2.73;;
46318;SDS011;32042;50.916;2.926;2023-12-28T10:14:44;16.23;;;3.40;;
46318;SDS011;32042;50.916;2.926;2023-12-28T10:17:10;15.60;;;2.43;;
46318;SDS011;32042;50.916;2.926;2023-12-28T10:19:36;12.23;;;2.10;;
46318;SDS011;32042;50.916;2.926;2023-12-28T10:22:03;15.37;;;3.37;;
46318;SDS011;32042;50.916;2.926;2023-12-28T10:24:29;10.33;;;2.50;;
46318;SDS011;32042;50.916;2.926;2023-12-28T10:26:56;9.00;;;2.93;;
46318;SDS011;32042;50.916;2.926;2023-12-28T10:29:24;17.97;;;2.57;;
46318;SDS011;32042;50.916;2.926;2023-12-28T10:31:51;11.70;;;2.53;;
46318;SDS011;32042;50.916;2.926;2023-12-28T10:34:18;9.80;;;2.07;;
46318;SDS011;32042;50.916;2.926;2023-12-28T10:36:44;11.77;;;3.23;;
46318;SDS011;32042;50.916;2.926;2023-12-28T10:39:11;13.97;;;2.40;;
46318;SDS011;32042;50.916;2.926;2023-12-28T10:41:41;17.20;;;2.60;;
46318;SDS011;32042;50.916;2.926;2023-12-28T10:44:07;15.77;;;2.67;;
46318;SDS011;32042;50.916;2.926;2023-12-28T10:46:35;19.30;;;3.23;;
46318;SDS011;32042;50.916;2.926;2023-12-28T10:49:09;11.13;;;2.40;;
46318;SDS011;32042;50.916;2.926;2023-12-28T10:51:37;16.40;;;2.87;;
46318;SDS011;32042;50.916;2.926;2023-12-28T10:56:53;19.67;;;2.87;;
46318;SDS011;32042;50.916;2.926;2023-12-28T10:59:31;12.40;;;3.07;;
46318;SDS011;32042;50.916;2.926;2023-12-28T11:02:01;12.17;;;1.90;;
46318;SDS011;32042;50.916;2.926;2023-12-28T11:04:37;15.00;;;2.87;;
46318;SDS011;32042;50.916;2.926;2023-12-28T11:07:09;13.77;;;2.10;;
46318;SDS011;32042;50.916;2.926;2023-12-28T11:09:36;18.43;;;3.87;;
46318;SDS011;32042;50.916;2.926;2023-12-28T11:12:03;13.07;;;2.73;;
46318;SDS011;32042;50.916;2.926;2023-12-28T11:14:33;20.30;;;3.72;;
46318;SDS011;32042;50.916;2.926;2023-12-28T11:17:00;20.37;;;3.53;;
46318;SDS011;32042;50.916;2.926;2023-12-28T11:19:30;17.33;;;3.33;;
46318;SDS011;32042;50.916;2.926;2023-12-28T11:21:56;11.83;;;2.80;;
46318;SDS011;32042;50.916;2.926;2023-12-28T11:24:24;12.10;;;2.60;;
46318;SDS011;32042;50.916;2.926;2023-12-28T11:26:52;12.63;;;2.80;;
46318;SDS011;32042;50.916;2.926;2023-12-28T11:29:22;11.93;;;2.90;;
46318;SDS011;32042;50.916;2.926;2023-12-28T11:31:51;7.63;;;2.10;;
46318;SDS011;32042;50.916;2.926;2023-12-28T11:34:18;10.27;;;2.63;;
46318;SDS011;32042;50.916;2.926;2023-12-28T11:36:47;15.67;;;3.00;;
46318;SDS011;32042;50.916;2.926;2023-12-28T11:39:19;15.17;;;2.53;;
46318;SDS011;32042;50.916;2.926;2023-12-28T11:41:46;18.87;;;2.57;;
46318;SDS011;32042;50.916;2.926;2023-12-28T11:44:12;21.60;;;3.53;;
46318;SDS011;32042;50.916;2.926;2023-12-28T11:46:38;16.60;;;3.43;;
46318;SDS011;32042;50.916;2.926;2023-12-28T11:49:08;15.67;;;2.67;;
46318;SDS011;32042;50.916;2.926;2023-12-28T11:51:38;8.00;;;1.90;;
46318;SDS011;32042;50.916;2.926;2023-12-28T11:54:05;13.13;;;2.60;;
46318;SDS011;32042;50.916;2.926;2023-12-28T11:56:31;11.07;;;2.27;;
46318;SDS011;32042;50.916;2.926;2023-12-28T11:59:00;11.67;;;2.13;;
46318;SDS011;32042;50.916;2.926;2023-12-28T12:01:26;11.83;;;2.47;;
46318;SDS011;32042;50.916;2.926;2023-12-28T12:03:53;13.10;;;3.03;;
46318;SDS011;32042;50.916;2.926;2023-12-28T12:06:20;12.43;;;2.63;;
46318;SDS011;32042;50.916;2.926;2023-12-28T12:08:46;12.63;;;2.77;;
46318;SDS011;32042;50.916;2.926;2023-12-28T12:11:13;13.83;;;2.50;;
46318;SDS011;32042;50.916;2.926;2023-12-28T12:13:39;8.20;;;1.90;;
46318;SDS011;32042;50.916;2.926;2023-12-28T12:16:05;14.60;;;2.43;;
46318;SDS011;32042;50.916;2.926;2023-12-28T12:18:32;14.90;;;2.90;;
46318;SDS011;32042;50.916;2.926;2023-12-28T12:20:58;12.13;;;2.40;;
46318;SDS011;32042;50.916;2.926;2023-12-28T12:23:24;14.47;;;2.50;;
46318;SDS011;32042;50.916;2.926;2023-12-28T12:25:51;20.07;;;2.97;;
46318;SDS011;32042;50.916;2.926;2023-12-28T12:28:17;11.57;;;1.83;;
46318;SDS011;32042;50.916;2.926;2023-12-28T12:30:55;12.60;;;2.20;;
46318;SDS011;32042;50.916;2.926;2023-12-28T12:33:22;9.97;;;2.30;;
46318;SDS011;32042;50.916;2.926;2023-12-28T12:35:50;9.13;;;2.40;;
46318;SDS011;32042;50.916;2.926;2023-12-28T12:38:16;13.70;;;2.83;;
46318;SDS011;32042;50.916;2.926;2023-12-28T12:40:42;16.70;;;3.47;;
46318;SDS011;32042;50.916;2.926;2023-12-28T12:43:08;13.80;;;2.77;;
46318;SDS011;32042;50.916;2.926;2023-12-28T12:45:35;17.33;;;2.87;;
46318;SDS011;32042;50.916;2.926;2023-12-28T12:48:02;14.13;;;2.57;;
46318;SDS011;32042;50.916;2.926;2023-12-28T12:50:29;15.57;;;2.50;;
46318;SDS011;32042;50.916;2.926;2023-12-28T12:52:55;16.13;;;2.53;;
46318;SDS011;32042;50.916;2.926;2023-12-28T12:55:21;8.43;;;2.00;;
46318;SDS011;32042;50.916;2.926;2023-12-28T12:57:50;10.47;;;2.47;;
46318;SDS011;32042;50.916;2.926;2023-12-28T13:00:16;17.03;;;3.00;;
46318;SDS011;32042;50.916;2.926;2023-12-28T13:02:44;9.87;;;1.80;;
46318;SDS011;32042;50.916;2.926;2023-12-28T13:05:11;13.47;;;2.23;;
46318;SDS011;32042;50.916;2.926;2023-12-28T13:07:38;16.87;;;2.53;;
46318;SDS011;32042;50.916;2.926;2023-12-28T13:10:04;13.13;;;2.50;;
46318;SDS011;32042;50.916;2.926;2023-12-28T13:12:30;9.57;;;2.60;;
46318;SDS011;32042;50.916;2.926;2023-12-28T13:14:57;13.67;;;1.77;;
46318;SDS011;32042;50.916;2.926;2023-12-28T13:17:23;12.90;;;1.87;;
46318;SDS011;32042;50.916;2.926;2023-12-28T13:19:49;10.13;;;3.10;;
46318;SDS011;32042;50.916;2.926;2023-12-28T13:22:15;11.50;;;2.93;;
46318;SDS011;32042;50.916;2.926;2023-12-28T13:24:41;11.53;;;2.33;;
46318;SDS011;32042;50.916;2.926;2023-12-28T13:27:07;12.63;;;3.20;;
46318;SDS011;32042;50.916;2.926;2023-12-28T13:29:35;10.73;;;2.37;;
46318;SDS011;32042;50.916;2.926;2023-12-28T13:32:01;4.70;;;1.70;;
46318;SDS011;32042;50.916;2.926;2023-12-28T13:34:27;11.57;;;2.30;;
46318;SDS011;32042;50.916;2.926;2023-12-28T13:36:53;13.10;;;2.20;;
46318;SDS011;32042;50.916;2.926;2023-12-28T13:39:20;10.27;;;2.20;;
46318;SDS011;32042;50.916;2.926;2023-12-28T13:41:46;12.50;;;2.47;;
46318;SDS011;32042;50.916;2.926;2023-12-28T13:44:12;11.77;;;2.33;;
46318;SDS011;32042;50.916;2.926;2023-12-28T13:46:38;13.63;;;1.87;;
46318;SDS011;32042;50.916;2.926;2023-12-28T13:49:05;13.63;;;2.13;;
46318;SDS011;32042;50.916;2.926;2023-12-28T13:51:32;11.67;;;2.20;;
46318;SDS011;32042;50.916;2.926;2023-12-28T13:53:58;8.27;;;1.70;;
46318;SDS011;32042;50.916;2.926;2023-12-28T13:56:24;11.57;;;2.43;;
46318;SDS011;32042;50.916;2.926;2023-12-28T13:58:50;19.37;;;3.10;;
46318;SDS011;32042;50.916;2.926;2023-12-28T14:01:16;13.00;;;2.60;;
46318;SDS011;32042;50.916;2.926;2023-12-28T14:03:43;10.33;;;2.10;;
46318;SDS011;32042;50.916;2.926;2023-12-28T14:06:14;15.17;;;2.17;;
46318;SDS011;32042;50.916;2.926;2023-12-28T14:08:40;8.27;;;2.20;;
46318;SDS011;32042;50.916;2.926;2023-12-28T14:11:06;9.63;;;2.10;;
46318;SDS011;32042;50.916;2.926;2023-12-28T14:13:32;5.93;;;1.37;;
46318;SDS011;32042;50.916;2.926;2023-12-28T14:16:00;14.13;;;2.40;;
46318;SDS011;32042;50.916;2.926;2023-12-28T14:18:26;11.47;;;2.37;;
46318;SDS011;32042;50.916;2.926;2023-12-28T14:20:52;10.50;;;2.30;;
46318;SDS011;32042;50.916;2.926;2023-12-28T14:23:18;8.77;;;1.33;;
46318;SDS011;32042;50.916;2.926;2023-12-28T14:25:45;19.53;;;2.20;;
46318;SDS011;32042;50.916;2.926;2023-12-28T14:28:16;16.13;;;3.33;;
46318;SDS011;32042;50.916;2.926;2023-12-28T14:30:43;15.20;;;2.80;;
46318;SDS011;32042;50.916;2.926;2023-12-28T14:33:10;14.53;;;1.93;;
46318;SDS011;32042;50.916;2.926;2023-12-28T14:35:36;11.63;;;1.77;;
46318;SDS011;32042;50.916;2.926;2023-12-28T14:38:04;13.50;;;2.20;;